Terminal Aerodrome Forecast
Issued by NWS Shreveport, LA

Home | Current Version | Previous Version | Text Only | Print | Product List | Glossary On
Versions: 1 2 3 4 5 6 7 8 9 10 11 12 13 14
000
FTUS44 KSHV 211133
TAFGGG
TAF
KGGG 211133Z 2112/2212 14005KT P6SM BKN015
      TEMPO 2112/2114 5SM BR BKN008
     FM211500 19007KT P6SM BKN025
     FM211800 18010KT P6SM SCT040 SCT250
     FM220100 16005KT P6SM SCT250
     FM220800 17004KT P6SM BKN015=

USA.gov is the U.S. government's official web portal to all federal, state and local government web resources and services.